Tuesday, March 31, 2015
20:48 UTC
  |  Log In   |  Register Free
Airport Search:

Clayton Municipal Airport
(11A)

Clayton Municipal Airport Diagram
No Airport Diagram Available

FAA data valid effective March 05, 2015 - April 30, 2015 (unless otherwise noted).

 
 
 
 
 
 
 
 
 
 
 
 
 
 

Current Aviation Weather for Clayton Municipal Airport (11A)

METAR data is unavailable for 11A. The nearest METAR location is at KEUF (18.6 nm NE from 11A).

The most recent METAR observation for KEUF was updated at: 2009
METAR Summary (Translated METAR)
KEUF
311958Z AUTO VRB04KT 10SM FEW050 SCT080 BKN090 27/14 A2998 RMK AO2 SLP149 T02670144 $
(18.6 nm NE from 11A)
KTOI
311953Z AUTO 25007G15KT 10SM SCT060 27/13 A3001 RMK AO2 SLP159 T02670128
(26.9 nm SW from 11A)
TAF Summary (Translated TAF)
KTOI
(45.4 nm SW from KEUF)
311748Z 3118/0118 25012KT P6SM FEW040 BKN080 FM010100 00000KT P6SM OVC080 FM010900 26004KT 4SM BR OVC007 FM011500 27002KT P6SM BKN100
  Airport Weather Conditions for 11A

Current weather conditions are
not available for 11A


The nearest NOAA weather station
is at EUF, (18.6 nm NE from 11A)
  
 Current Weather at EUF
82° F
Overcast
West winds at 9.2 mph
EUF NOAA Radar

Pressure: 30.01 in
Humidity: 43%
Wind: West at 9.2 MPH (8 KT)
Dew Point: 57.0°F
Visibility: 10.00 mi


Airport Weather Forecast for 11A

Translated METAR and TAF for KEUF
Translated METAR for KEUF (2047 UTC 31 March 2015)
found at http://aviationweather.gov/adds/metars/
 
METAR text: KEUF 311958Z AUTO VRB04KT 10SM FEW050 SCT080 BKN090 27/14 A2998 RMK AO2 SLP149 T02670144 $
Conditions at: KEUF (EUFAULA , AL, US) observed 1958 UTC 31 March 2015
Temperature: 26.7°C (80°F)
Dewpoint: 14.4°C (58°F) [RH = 47%]
Pressure (altimeter): 29.98 inches Hg (1015.3 mb)
[Sea-level pressure: 1014.9 mb]
Winds: variable direction winds at 5 MPH (4 knots; 2.1 m/s)
Visibility: 10 or more miles (16+ km)
Ceiling: 9000 feet AGL
Clouds: few clouds at 5000 feet AGL
scattered clouds at 8000 feet AGL
broken clouds at 9000 feet AGL
Weather:
SOME DATA ABOVE MAY BE INACCURATE!!!
"$" is an indication the sensor requires maintenance
Translated TAF for KEUF

There is no translated TAF available for this airport

Find All Airport Services Find A Hotel Find A Rental Car Find A Golf Course Find A Restaurant $100 Hamburger



FBO's on the Field
FBO Company Facility Photos Services Transportation Aviation Fuel Prices: Prices include tax
Catering Weather Repair Courtesy Rental Type 100LL JetA JetA+ MOGAS 8087
 
Add another FBO Facility Photos Catering Weather Repair Courtesy Rental Type 100LL JetA JetA+ MOGAS 8087
Services Transportation Aviation Fuel Prices: Prices include tax
There are no FBO's currently reporting fuel at 11A. List your FBO now


model-print
model-print
model-print
model-print